Weather observations for the past three days for
Elbert Mountain - Monument Pass
| Date | Time (mdt) | Wind (kph) | Vis. (km) | Weather | Sky Cond. | Temperature (ºC) | Relative Humidity | Wind Chill (°C) | Heat Index (°C) | Pressure | Precipitation (cm) | ||||||
|---|---|---|---|---|---|---|---|---|---|---|---|---|---|---|---|---|---|
| Air | Dwpt | 6 hour | altimeter (cm) | sea level (mb) | 1 hr | 3 hr | 6 hr | ||||||||||
| Max. | Min. | ||||||||||||||||
| 10 | 10:55 | Calm | 16.09 | Partly Cloudy | SCT027 | 10 | 3 | 62% | 77.06 | 0.0 | |||||||
| 10 | 10:35 | Calm | 16.09 | Mostly Cloudy | SCT022 BKN029 | 10 | 4 | 67% | 77.06 | 0.0 | |||||||
| 10 | 10:15 | Calm | 16.09 | Mostly Cloudy | BKN018 BKN026 | 10 | 4 | 67% | 77.06 | 0.0 | |||||||
| 10 | 09:55 | Calm | 16.09 | Overcast | BKN018 OVC026 | 8 | 5 | 82% | 77.06 | 0.0 | |||||||
| 10 | 09:35 | Calm | 16.09 | Overcast | BKN016 OVC024 | 8 | 5 | 82% | 77.06 | 0.0 | |||||||
| 10 | 09:15 | Calm | 16.09 | Overcast | SCT009 SCT013 OVC018 | 7 | 4 | 81% | 77.09 | 0.0 | |||||||
| 10 | 08:55 | Calm | 16.09 | Overcast | SCT009 OVC016 | 6 | 4 | 87% | 77.06 | 0.0 | |||||||
| 10 | 08:35 | Calm | 16.09 | Overcast | SCT009 BKN013 OVC020 | 6 | 4 | 87% | 77.06 | 0.0 | |||||||
| 10 | 08:15 | Calm | 16.09 | Overcast | SCT010 SCT015 OVC030 | 6 | 4 | 87% | 77.06 | 0.0 | |||||||
| 10 | 07:55 | S 6 | 16.09 | Overcast | OVC030 | 6 | 5 | 93% | 77.04 | 0.0 | |||||||
| 10 | 07:35 | S 7 | 16.09 | Overcast | OVC026 | 5 | 5 | 100% | 4 | 77.04 | 0.0 | ||||||
| 10 | 07:15 | Calm | 16.09 | Overcast | SCT004 OVC024 | 5 | 5 | 100% | 77.04 | 0.0 | |||||||
| 10 | 06:55 | Calm | 16.09 | Overcast | BKN004 OVC026 | 5 | 5 | 100% | 77.04 | 0.0 | |||||||
| 10 | 06:35 | Calm | 16.09 | Overcast | BKN004 OVC026 | 5 | 5 | 100% | 77.01 | 0.0 | |||||||
| 10 | 06:15 | Calm | 16.09 | Overcast | BKN004 BKN015 OVC026 | 5 | 4 | 93% | 77.01 | 0.0 | |||||||
| 10 | 05:55 | Calm | 16.09 | Overcast | BKN004 BKN010 OVC015 | 5 | 4 | 93% | 76.99 | 0.0 | |||||||
| 10 | 05:35 | NE 6 | 16.09 | Overcast | SCT004 OVC008 | 5 | 4 | 93% | 76.99 | 0.0 | |||||||
| 10 | 05:15 | Calm | 16.09 | Overcast | BKN004 BKN009 OVC014 | 5 | 5 | 100% | 76.99 | 0.0 | |||||||
| 10 | 04:55 | Calm | 16.09 | Overcast | SCT004 SCT010 OVC016 | 5 | 4 | 93% | 76.99 | 0.0 | |||||||
| 10 | 04:35 | Calm | 16.09 | Overcast | SCT006 BKN009 OVC016 | 5 | 4 | 93% | 76.96 | 0.0 | |||||||
| 10 | 04:15 | Calm | 16.09 | Overcast | BKN006 OVC014 | 5 | 4 | 93% | 76.96 | 0.0 | |||||||
| 10 | 03:35 | Calm | 16.09 | Overcast | SCT002 OVC011 | 5 | 4 | 93% | 76.94 | 0.0 | |||||||
| 10 | 03:15 | N 6 | 8.05 | Fog/Mist | BKN002 OVC007 | 4 | 4 | 100% | 76.94 | 0.0 | |||||||
| 10 | 02:55 | Calm | 4.83 | Light Rain | OVC002 | 4 | 4 | 100% | 76.94 | 0.0 | |||||||
| 10 | 02:35 | N 6 | 4.02 | Fog/Mist | OVC002 | 4 | 4 | 100% | 76.94 | 0.0 | |||||||
| 10 | 02:15 | Calm | 4.02 | Fog/Mist | OVC002 | 4 | 4 | 100% | 76.94 | 0.0 | |||||||
| 10 | 01:55 | N 11 | 8.05 | Fog/Mist | OVC002 | 4 | 4 | 100% | 2 | 76.94 | 0.0 | ||||||
| 10 | 01:35 | N 11 | 8.05 | Fog/Mist | OVC002 | 4 | 4 | 100% | 2 | 76.91 | 0.0 | ||||||
| 10 | 01:15 | N 13 | 8.05 | Light Drizzle | OVC002 | 5 | 4 | 93% | 2 | 76.94 | 0.0 | ||||||
| 10 | 00:55 | N 17 | 8.05 | Drizzle | OVC004 | 5 | 4 | 93% | 2 | 76.94 | 0.0 | 0.03 | |||||
| 10 | 00:35 | N 15 | 11.27 | Drizzle | OVC004 | 5 | 5 | 100% | 2 | 76.94 | 0.0 | ||||||
| 10 | 00:15 | NW 17 | 16.09 | Light Drizzle | OVC006 | 5 | 5 | 100% | 2 | 76.96 | 0.0 | ||||||
| 09 | 23:55 | N 17 G 31 | 16.09 | Overcast | OVC006 | 5 | 4 | 93% | 2 | 76.94 | 0.0 | ||||||
| 09 | 23:35 | N 17 G 28 | 16.09 | Overcast | OVC006 | 6 | 4 | 87% | 3 | 76.89 | 0.0 | ||||||
| 09 | 23:15 | N 17 | 16.09 | Overcast | OVC006 | 5 | 5 | 100% | 2 | 76.91 | 0.0 | ||||||
| 09 | 22:55 | N 22 G 31 | 16.09 | Overcast | OVC006 | 5 | 5 | 100% | 1 | 76.84 | 0.0 | ||||||
| 09 | 22:35 | N 30 G 37 | 16.09 | Overcast | OVC008 | 6 | 5 | 93% | 2 | 76.84 | 0.0 | ||||||
| 09 | 22:15 | N 22 G 39 | 16.09 | Overcast | OVC008 | 6 | 5 | 93% | 2 | 76.94 | 0.0 | ||||||
| 09 | 21:55 | N 26 G 35 | 16.09 | Overcast | OVC010 | 6 | 5 | 93% | 2 | 76.91 | 0.0 | ||||||
| 09 | 21:35 | N 28 G 39 | 16.09 | Overcast | OVC014 | 6 | 4 | 87% | 2 | 76.84 | 0.0 | ||||||
| 09 | 21:15 | N 28 G 41 | 16.09 | Mostly Cloudy | BKN019 BKN027 | 6 | 4 | 87% | 2 | 76.81 | 0.0 | ||||||
| 09 | 20:55 | N 33 G 48 | 16.09 | Light Rain and Breezy | SCT027 SCT050 BKN070 | 7 | 3 | 76% | 3 | 76.73 | 0.0 | ||||||
| 09 | 20:35 | N 30 G 48 | 16.09 | Thunderstorm Light Rain in Vicinity | BKN070 OVC100 | 9 | 3 | 66% | 6 | 76.63 | 0.0 | ||||||
| 09 | 20:15 | N 41 G 50 | 16.09 | Thunderstorm in Vicinity and Breezy | BKN100 BKN110 | 13 | 2 | 47% | 76.56 | 0.0 | |||||||
| 09 | 19:55 | E 11 | 16.09 | Mostly Cloudy | BKN110 | 14 | 2 | 44% | 76.4 | 0.0 | |||||||
| 09 | 19:35 | NE 11 | 16.09 | Mostly Cloudy | BKN120 | 15 | 0 | 36% | 76.4 | 0.0 | |||||||
| 09 | 19:15 | NE 6 | 16.09 | Partly Cloudy | SCT120 | 15 | 0 | 36% | 76.38 | 0.0 | |||||||
| 09 | 18:55 | E 11 | 16.09 | Mostly Cloudy | BKN120 | 16 | 0 | 34% | 76.33 | 0.0 | |||||||
| 09 | 18:35 | Calm | 16.09 | Partly Cloudy | SCT120 | 16 | 0 | 34% | 76.35 | 0.0 | |||||||
| 09 | 18:15 | E 7 | 16.09 | Fair | CLR | 17 | 0 | 32% | 76.3 | 0.0 | |||||||
| 09 | 17:55 | NE 7 | 16.09 | Fair | CLR | 17 | -2 | 27% | 76.33 | 0.0 | |||||||
| 09 | 17:35 | NE 13 | 16.09 | Fair | CLR | 18 | -1 | 28% | 76.33 | 0.0 | |||||||
| 09 | 17:15 | E 11 | 16.09 | Fair | CLR | 18 | -2 | 26% | 76.33 | 0.0 | |||||||
| 09 | 16:55 | NE 17 | 16.09 | Partly Cloudy | SCT120 | 18 | -2 | 26% | 76.3 | 0.0 | |||||||
| 09 | 16:35 | Calm | 16.09 | Mostly Cloudy | BKN110 | 17 | -2 | 27% | 76.3 | 0.0 | |||||||
| 09 | 16:15 | N 15 | 16.09 | Partly Cloudy | SCT120 | 17 | -2 | 27% | 76.3 | 0.0 | |||||||
| 09 | 15:55 | N 15 | 16.09 | Partly Cloudy | SCT110 | 17 | -2 | 27% | 76.28 | 0.0 | |||||||
| 09 | 15:35 | N 22 G 41 | 16.09 | Mostly Cloudy | SCT100 BKN120 | 17 | -2 | 27% | 76.28 | 0.0 | |||||||
| 09 | 15:15 | N 19 | 16.09 | Partly Cloudy | SCT120 | 18 | -2 | 26% | 76.3 | 0.0 | |||||||
| 09 | 14:55 | N 13 | 16.09 | Fair | CLR | 18 | -3 | 24% | 76.3 | 0.0 | |||||||
| 09 | 14:35 | N 15 | 16.09 | Fair | CLR | 20 | -2 | 23% | 76.3 | 0.0 | |||||||
| 09 | 14:15 | N 11 | 16.09 | Fair | CLR | 20 | -3 | 21% | 76.33 | 0.0 | |||||||
| 09 | 13:55 | NE 15 G 39 | 16.09 | Fair | CLR | 19 | -3 | 22% | 76.33 | 0.0 | |||||||
| 09 | 13:35 | N 15 | 16.09 | Fair | CLR | 19 | -5 | 19% | 76.33 | 0.0 | |||||||
| 09 | 13:15 | NW 17 G 28 | 16.09 | Fair | CLR | 19 | -5 | 19% | 76.35 | 0.0 | |||||||
| 09 | 12:55 | N 19 G 31 | 16.09 | Fair | CLR | 18 | -4 | 22% | 76.35 | 0.0 | |||||||
| 09 | 12:35 | N 24 G 37 | 16.09 | Fair | CLR | 18 | -3 | 24% | 76.35 | 0.0 | |||||||
| 09 | 12:15 | N 9 G 31 | 16.09 | Fair | CLR | 18 | -5 | 21% | 76.35 | 0.0 | |||||||
| 09 | 11:55 | N 24 G 35 | 16.09 | Fair | CLR | 18 | -3 | 24% | 76.35 | 0.0 | |||||||
| 09 | 11:35 | N 20 G 39 | 16.09 | Fair | CLR | 17 | -5 | 22% | 76.38 | 0.0 | |||||||
| 09 | 11:15 | N 24 G 41 | 16.09 | Fair | CLR | 17 | -5 | 22% | 76.38 | 0.0 | |||||||
| 09 | 10:55 | N 24 G 41 | 16.09 | Fair | CLR | 17 | -5 | 22% | 76.38 | 0.0 | |||||||
| 09 | 10:35 | N 17 G 33 | 16.09 | Fair | CLR | 17 | -4 | 24% | 76.38 | 0.0 | |||||||
| 09 | 10:15 | NW 26 G 46 | 16.09 | Fair | CLR | 16 | -5 | 23% | 76.35 | 0.0 | |||||||
| 09 | 09:55 | NW 33 G 46 | 16.09 | Fair and Breezy | CLR | 16 | -3 | 27% | 76.35 | 0.0 | |||||||
| 09 | 09:35 | NW 37 G 46 | 16.09 | Fair and Breezy | CLR | 16 | -6 | 22% | 76.38 | 0.0 | |||||||
| 09 | 09:15 | NW 22 G 31 | 16.09 | Fair | CLR | 15 | -2 | 31% | 76.38 | 0.0 | |||||||
| 09 | 08:55 | W 24 | 16.09 | Fair | CLR | 15 | -2 | 31% | 76.38 | 0.0 | |||||||
| 09 | 08:35 | NW 26 G 33 | 16.09 | Fair | CLR | 15 | 0 | 36% | 76.38 | 0.0 | |||||||
| 09 | 08:15 | W 13 | 16.09 | Fair | CLR | 12 | 2 | 51% | 76.38 | 0.0 | |||||||
| 09 | 07:55 | SW 9 | 16.09 | Fair | CLR | 11 | 1 | 50% | 76.38 | 0.0 | |||||||
| 09 | 07:35 | SW 7 | 16.09 | Fair | CLR | 10 | 2 | 58% | 9 | 76.35 | 0.0 | ||||||
| 09 | 07:15 | SW 11 | 16.09 | Fair | CLR | 12 | 1 | 47% | 76.35 | 0.0 | |||||||
| 09 | 06:55 | SW 9 | 16.09 | Fair | CLR | 9 | 1 | 58% | 8 | 76.35 | 0.0 | ||||||
| 09 | 06:35 | SW 19 | 16.09 | Fair | CLR | 8 | 1 | 62% | 5 | 76.3 | 0.0 | ||||||
| 09 | 06:15 | SW 17 | 16.09 | Fair | CLR | 7 | 1 | 66% | 4 | 76.3 | 0.0 | ||||||
| 09 | 05:55 | SW 15 | 16.09 | Fair | CLR | 7 | 1 | 66% | 5 | 76.28 | 0.0 | ||||||
| 09 | 05:35 | S 13 | 16.09 | Fair | CLR | 6 | 1 | 71% | 4 | 76.28 | 0.0 | ||||||
| 09 | 05:15 | S 9 | 16.09 | Fair | CLR | 7 | 1 | 66% | 5 | 76.28 | 0.0 | ||||||
| 09 | 04:55 | S 9 | 16.09 | Fair | CLR | 7 | 1 | 66% | 5 | 76.28 | 0.0 | ||||||
| 09 | 04:35 | S 7 | 16.09 | Fair | CLR | 6 | 1 | 71% | 5 | 76.28 | 0.0 | ||||||
| 09 | 04:15 | S 13 | 16.09 | Fair | CLR | 7 | 1 | 66% | 5 | 76.28 | 0.0 | ||||||
| 09 | 03:55 | S 19 | 16.09 | Fair | CLR | 8 | 1 | 62% | 5 | 76.25 | 0.0 | ||||||
| 09 | 03:35 | S 20 | 16.09 | Fair | CLR | 8 | 1 | 62% | 5 | 76.25 | 0.0 | ||||||
| 09 | 03:15 | S 20 G 31 | 16.09 | Fair | CLR | 8 | 1 | 62% | 5 | 76.28 | 0.0 | ||||||
| 09 | 02:55 | S 22 G 30 | 16.09 | Fair | CLR | 8 | 1 | 62% | 5 | 76.28 | 0.0 | ||||||
| 09 | 02:35 | S 22 | 16.09 | Fair | CLR | 8 | 1 | 62% | 5 | 76.28 | 0.0 | ||||||
| 09 | 02:15 | S 20 | 16.09 | Fair | CLR | 8 | 1 | 62% | 5 | 76.28 | 0.0 | ||||||
| 09 | 01:55 | S 24 G 33 | 16.09 | Partly Cloudy | SCT110 | 8 | 1 | 62% | 5 | 76.28 | 0.0 | ||||||
| 09 | 01:35 | S 26 | 16.09 | Partly Cloudy | SCT110 | 9 | 1 | 58% | 6 | 76.3 | 0.0 | ||||||
| 09 | 01:15 | S 20 | 16.09 | Fair | CLR | 8 | 1 | 62% | 5 | 76.3 | 0.0 | ||||||
| 09 | 00:55 | S 20 | 16.09 | Fair | CLR | 8 | 1 | 62% | 5 | 76.33 | 0.0 | ||||||
| 09 | 00:35 | S 19 | 16.09 | Fair | CLR | 7 | 1 | 66% | 4 | 76.35 | 0.0 | ||||||
| 09 | 00:15 | S 13 | 16.09 | Fair | CLR | 6 | 2 | 76% | 4 | 76.4 | 0.0 | ||||||
| 08 | 23:55 | S 13 | 16.09 | Partly Cloudy | SCT110 | 7 | 2 | 71% | 5 | 76.4 | 0.0 | ||||||
| 08 | 23:35 | S 15 | 16.09 | Partly Cloudy | SCT095 SCT120 | 7 | 2 | 71% | 5 | 76.43 | 0.0 | ||||||
| 08 | 23:15 | S 11 | 16.09 | Fair | CLR | 7 | 2 | 71% | 5 | 76.43 | 0.0 | ||||||
| 08 | 22:55 | S 17 | 16.09 | Partly Cloudy | SCT090 | 8 | 2 | 66% | 6 | 76.43 | 0.0 | ||||||
| 08 | 22:35 | S 15 | 16.09 | Partly Cloudy | SCT090 | 7 | 3 | 76% | 5 | 76.43 | 0.0 | ||||||
| 08 | 22:15 | SE 9 | 16.09 | Fair | CLR | 7 | 2 | 71% | 5 | 76.45 | 0.0 | ||||||
| 08 | 21:55 | SE 9 | 16.09 | Fair | CLR | 8 | 2 | 66% | 7 | 76.43 | 0.0 | ||||||
| 08 | 21:35 | SE 9 | 16.09 | Fair | CLR | 8 | 3 | 71% | 7 | 76.43 | 0.0 | ||||||
| 08 | 21:15 | SE 11 | 16.09 | Fair | CLR | 9 | 3 | 66% | 8 | 76.43 | 0.0 | ||||||
| 08 | 20:55 | SE 9 | 16.09 | Fair | CLR | 8 | 3 | 71% | 7 | 76.4 | 0.0 | ||||||
| 08 | 20:35 | SE 7 | 16.09 | Fair | CLR | 9 | 3 | 66% | 8 | 76.4 | 0.0 | ||||||
| 08 | 20:15 | E 7 | 16.09 | Fair | CLR | 10 | 3 | 62% | 9 | 76.38 | 0.0 | ||||||
| 08 | 19:55 | E 7 | 16.09 | Fair | CLR | 11 | 3 | 58% | 76.35 | 0.0 | |||||||
| 08 | 19:35 | E 13 | 16.09 | Fair | CLR | 13 | 3 | 51% | 76.33 | 0.0 | |||||||
| 08 | 19:15 | E 7 | 16.09 | Fair | CLR | 13 | 3 | 51% | 76.35 | 0.0 | |||||||
| 08 | 18:35 | E 15 | 16.09 | Fair | CLR | 15 | 3 | 45% | 76.33 | 0.0 | |||||||
| 08 | 18:15 | E 13 | 16.09 | Partly Cloudy | SCT060 | 15 | 2 | 42% | 76.35 | 0.0 | |||||||
| 08 | 17:55 | E 11 | 16.09 | Fair | CLR | 15 | 2 | 42% | 76.35 | 0.0 | |||||||
| 08 | 17:35 | E 9 | 16.09 | Fair | CLR | 15 | 2 | 42% | 76.33 | 0.0 | |||||||
| 08 | 17:15 | E 15 | 16.09 | Fair | CLR | 16 | 3 | 42% | 76.33 | 0.0 | |||||||
| 08 | 16:55 | NE 13 | 16.09 | Fair | CLR | 16 | 3 | 42% | 76.33 | 0.0 | |||||||
| 08 | 16:15 | NE 15 | 16.09 | Fair | CLR | 16 | 3 | 42% | 76.33 | 0.0 | |||||||
| 08 | 15:55 | N 7 | 16.09 | Fair | CLR | 16 | 2 | 39% | 76.35 | 0.0 | |||||||
| 08 | 15:35 | NE 15 | 16.09 | Fair | CLR | 16 | 2 | 39% | 76.35 | 0.0 | |||||||
| 08 | 15:15 | NE 11 | 16.09 | Fair | CLR | 16 | 2 | 39% | 76.38 | 0.0 | |||||||
| 08 | 14:55 | E 7 | 16.09 | Fair | CLR | 15 | 2 | 42% | 76.38 | 0.0 | |||||||
| 08 | 14:35 | E 11 | 16.09 | Fair | CLR | 15 | 2 | 42% | 76.38 | 0.0 | |||||||
| 08 | 14:15 | NE 9 | 16.09 | Fair | CLR | 15 | 3 | 45% | 76.4 | 0.0 | |||||||
| 08 | 13:55 | N 13 G 26 | 16.09 | Fair | CLR | 15 | 2 | 42% | 76.4 | 0.0 | |||||||
| 08 | 13:35 | N 20 | 16.09 | Fair | CLR | 15 | 2 | 42% | 76.4 | 0.0 | |||||||
| 08 | 13:15 | N 13 G 28 | 16.09 | Fair | CLR | 15 | 1 | 39% | 76.43 | 0.0 | |||||||
| 08 | 12:55 | N 15 G 30 | 16.09 | Fair | CLR | 15 | 1 | 39% | 76.4 | 0.0 | |||||||
| 08 | 12:35 | N 17 | 16.09 | Fair | CLR | 15 | 2 | 42% | 76.43 | 0.0 | |||||||
| 08 | 12:15 | N 11 | 16.09 | Fair | CLR | 13 | 2 | 47% | 76.45 | 0.0 | |||||||
| 08 | 11:55 | Calm | 16.09 | Fair | CLR | 13 | 2 | 47% | 76.48 | 0.0 | |||||||
| 08 | 11:35 | NE 7 | 16.09 | Fair | CLR | 12 | 2 | 51% | 76.48 | 0.0 | |||||||
| 08 | 11:15 | Calm | 16.09 | Fair | CLR | 12 | 2 | 51% | 76.48 | 0.0 | |||||||
| 08 | 10:55 | N 9 | 16.09 | Fair | CLR | 11 | 3 | 58% | 76.5 | 0.0 | |||||||
| 08 | 10:35 | NW 11 | 16.09 | Fair | CLR | 11 | 2 | 54% | 76.5 | 0.0 | |||||||
| 08 | 10:15 | NW 9 | 16.09 | Fair | CLR | 11 | 3 | 58% | 76.5 | 0.0 | |||||||
| 08 | 09:55 | NW 9 | 16.09 | Fair | CLR | 10 | 3 | 62% | 9 | 76.5 | 0.0 | ||||||
| 08 | 09:35 | NW 7 | 16.09 | Fair | CLR | 9 | 3 | 66% | 8 | 76.5 | 0.0 | ||||||
| 08 | 09:15 | W 7 | 16.09 | Partly Cloudy | SCT010 | 8 | 4 | 76% | 7 | 76.5 | 0.0 | ||||||
| 08 | 08:55 | W 15 | 16.09 | Overcast | OVC010 | 7 | 5 | 87% | 5 | 76.56 | 0.0 | ||||||
| 08 | 08:35 | NW 13 | 16.09 | Overcast | OVC010 | 6 | 4 | 87% | 4 | 76.56 | 0.0 | ||||||
| 08 | 08:15 | W 6 | 16.09 | Overcast | SCT012 OVC022 | 5 | 3 | 87% | 76.56 | 0.0 | |||||||
| 08 | 07:55 | NW 9 | 16.09 | Overcast | SCT007 SCT014 OVC020 | 5 | 3 | 87% | 3 | 76.56 | 0.0 | ||||||
| 08 | 07:15 | N 11 | 16.09 | Mostly Cloudy | BKN012 | 4 | 3 | 93% | 2 | 76.5 | 0.0 | ||||||
| 08 | 06:35 | N 11 | 16.09 | Mostly Cloudy | BKN004 | 3 | 2 | 93% | 0 | 76.43 | 0.0 | ||||||
| 08 | 06:15 | N 11 | 16.09 | Partly Cloudy | SCT004 SCT008 | 3 | 2 | 93% | 0 | 76.4 | 0.0 | ||||||
| 08 | 05:55 | N 11 | 16.09 | Fair | CLR | 3 | 1 | 87% | 0 | 76.38 | 0.0 | ||||||
| 08 | 05:35 | SW 15 | 16.09 | Fair | CLR | 2 | 1 | 93% | -2 | 76.33 | 0.0 | ||||||
| 08 | 05:15 | S 13 | 16.09 | Fair | CLR | 1 | 0 | 93% | -2 | 76.33 | 0.0 | ||||||
| 08 | 04:55 | SW 7 | 16.09 | Fair | CLR | 1 | 0 | 93% | -1 | 76.33 | 0.0 | ||||||
| 08 | 04:35 | Calm | 16.09 | Fair | CLR | 1 | 0 | 93% | 76.35 | 0.0 | |||||||
| 08 | 04:15 | Calm | 16.09 | Fair | CLR | 2 | 0 | 87% | 76.35 | 0.0 | |||||||
| 08 | 03:55 | E 6 | 16.09 | Fair | CLR | 3 | 1 | 87% | 76.33 | 0.0 | |||||||
| 08 | 03:35 | NE 6 | 16.09 | Fair | CLR | 2 | 0 | 87% | 76.33 | 0.0 | |||||||
| 08 | 03:15 | N 9 | 16.09 | Fair | CLR | 2 | 0 | 87% | -0 | 76.35 | 0.0 | ||||||
| 08 | 02:55 | Calm | 16.09 | Fair | CLR | 2 | 0 | 87% | 76.33 | 0.0 | |||||||
| 08 | 02:35 | S 7 | 16.09 | Fair | CLR | 3 | 1 | 87% | 1 | 76.35 | 0.0 | ||||||
| 08 | 02:15 | S 13 | 16.09 | Partly Cloudy | SCT090 SCT110 | 3 | 1 | 87% | 0 | 76.35 | 0.0 | ||||||
| 08 | 01:55 | E 7 | 16.09 | Mostly Cloudy | SCT090 BKN110 | 5 | 2 | 81% | 4 | 76.4 | 0.0 | ||||||
| 08 | 01:35 | E 9 | 16.09 | Partly Cloudy | SCT120 | 5 | 2 | 81% | 3 | 76.4 | 0.0 | ||||||
| 08 | 01:15 | NE 7 | 16.09 | Fair | CLR | 5 | 1 | 76% | 4 | 76.43 | 0.0 | ||||||
| 08 | 00:55 | SE 7 | 16.09 | Fair | CLR | 5 | 1 | 76% | 4 | 76.4 | 0.0 | ||||||
| 08 | 00:35 | E 6 | 16.09 | Fair | CLR | 6 | 1 | 71% | 76.4 | 0.0 | |||||||
| 08 | 00:15 | E 9 | 16.09 | Fair | CLR | 6 | 2 | 76% | 4 | 76.4 | 0.0 | ||||||
| 07 | 23:55 | NE 7 | 16.09 | Partly Cloudy | SCT085 | 7 | 1 | 66% | 6 | 76.4 | 0.0 | ||||||
| 07 | 23:35 | Calm | 16.09 | Mostly Cloudy | BKN095 | 8 | 1 | 62% | 76.4 | 0.0 | |||||||
| 07 | 23:15 | E 7 | 16.09 | Partly Cloudy | SCT095 | 8 | 1 | 62% | 7 | 76.38 | 0.0 | ||||||
| 07 | 22:55 | SE 9 | 16.09 | Fair | CLR | 8 | 2 | 66% | 7 | 76.35 | 0.0 | ||||||
| 07 | 22:35 | SE 7 | 16.09 | Fair | CLR | 8 | 1 | 62% | 7 | 76.38 | 0.0 | ||||||
| 07 | 22:15 | SE 9 | 16.09 | Partly Cloudy | SCT110 | 9 | 1 | 58% | 8 | 76.38 | 0.0 | ||||||
| 07 | 21:55 | E 6 | 16.09 | Overcast | SCT070 BKN090 OVC110 | 10 | 1 | 54% | 76.38 | 0.0 | |||||||
| 07 | 21:35 | Calm | 16.09 | Overcast | SCT080 OVC090 | 10 | 2 | 58% | 76.43 | 0.0 | |||||||
| 07 | 21:15 | NE 9 | 16.09 | Overcast | OVC090 | 11 | 1 | 50% | 76.38 | 0.0 | |||||||
| 07 | 20:55 | NW 6 | 16.09 | Overcast | OVC100 | 11 | 0 | 47% | 76.33 | 0.0 | |||||||
| 07 | 20:35 | Calm | 16.09 | Overcast | OVC100 | 10 | 1 | 54% | 76.3 | 0.0 | |||||||
| 07 | 20:15 | W 6 | 16.09 | Overcast | OVC110 | 10 | 1 | 54% | 76.3 | 0.0 | |||||||
| 07 | 19:35 | Calm | 16.09 | Mostly Cloudy | BKN110 | 12 | 0 | 44% | 76.28 | 0.0 | |||||||
| 07 | 19:15 | Calm | 16.09 | Mostly Cloudy | BKN110 | 13 | 0 | 41% | 76.25 | 0.0 | |||||||
| 07 | 18:55 | NW 9 | 16.09 | Overcast | OVC110 | 14 | -1 | 36% | 76.25 | 0.0 | |||||||
| 07 | 18:35 | Calm | 16.09 | Overcast | OVC110 | 13 | 0 | 41% | 76.25 | 0.0 | |||||||
| 07 | 18:15 | NW 7 | 16.09 | Mostly Cloudy | BKN110 | 14 | -2 | 33% | 76.25 | 0.0 | |||||||
| 07 | 17:55 | W 15 | 16.09 | Fair | CLR | 15 | -1 | 34% | 76.25 | 0.0 | |||||||
| 07 | 17:35 | NW 19 | 16.09 | Fair | CLR | 15 | -2 | 31% | 76.25 | 0.0 | |||||||
| 07 | 17:15 | NW 17 G 28 | 16.09 | Fair | CLR | 15 | -2 | 31% | 76.25 | 0.0 | |||||||
| 07 | 16:55 | NW 17 | 16.09 | Fair | CLR | 15 | -2 | 31% | 76.25 | 0.0 | |||||||
| 07 | 16:35 | W 19 | 16.09 | Fair | CLR | 16 | -1 | 31% | 76.28 | 0.0 | |||||||
| 07 | 16:15 | NW 22 G 37 | 16.09 | Fair | CLR | 16 | -1 | 31% | 76.28 | 0.0 | |||||||
| 07 | 15:55 | NW 24 G 37 | 16.09 | Fair | CLR | 16 | 0 | 34% | 76.28 | 0.0 | |||||||
| 07 | 15:35 | NW 28 G 41 | 16.09 | Fair | CLR | 16 | -1 | 31% | 76.3 | 0.0 | |||||||
| 07 | 15:15 | NW 15 G 37 | 16.09 | Fair | CLR | 15 | -1 | 34% | 76.33 | 0.0 | |||||||
| 07 | 14:55 | NW 19 G 33 | 16.09 | Fair | CLR | 15 | -2 | 31% | 76.33 | 0.0 | |||||||
| 07 | 14:35 | W 20 G 31 | 16.09 | Fair | CLR | 16 | -1 | 31% | 76.35 | 0.0 | |||||||
| 07 | 14:15 | NW 26 G 33 | 16.09 | Fair | CLR | 15 | -1 | 34% | 76.38 | 0.0 | |||||||
| 07 | 13:35 | W 19 | 16.09 | Fair | CLR | 15 | -1 | 34% | 76.4 | 0.0 | |||||||
| 07 | 13:15 | W 22 | 16.09 | Fair | CLR | 15 | -3 | 29% | 76.43 | 0.0 | |||||||
| 07 | 12:55 | W 15 | 16.09 | Partly Cloudy | SCT085 | 15 | -2 | 31% | 76.43 | 0.0 | |||||||
| 07 | 12:35 | W 11 | 16.09 | Fair | CLR | 14 | -2 | 33% | 76.43 | 0.0 | |||||||
| 07 | 12:15 | W 15 | 16.09 | Fair | CLR | 13 | -3 | 33% | 76.43 | 0.0 | |||||||
| 07 | 11:55 | W 13 | 16.09 | Fair | CLR | 13 | -3 | 33% | 76.45 | 0.0 | |||||||
| Date | Time (mdt) | Wind (kph) | Vis. (km) | Weather | Sky Cond. | Air | Dwpt | Max. | Min. | Relative Humidity | Wind Chill (°C) | Heat Index (°C) | altimeter (cm) | sea level (mb) | 1 hr | 3 hr | 6 hr |
| 6 hour | |||||||||||||||||
| Temperature (ºC) | Pressure | Precipitation (cm) | |||||||||||||||